Time;durP1;ratioP1;P1;durP2;ratioP2;P2;SDS_P1;SDS_P2;PMS_P1;PMS_P2;Temp;Humidity;BMP_temperature;BMP_pressure;BME280_temperature;BME280_humidity;BME280_pressure;Samples;Min_cycle;Max_cycle;Signal;HPM_P1;HPM_P2
2023/01/11 00:01:52;;;;;;;14.02;4.10;;;5.90;99.90;;;;;;5089285;28;20161;-70
2023/01/11 00:04:19;;;;;;;13.55;4.45;;;6.00;99.90;;;;;;5105287;28;20102;-70
2023/01/11 00:06:45;;;;;;;8.90;3.80;;;6.00;99.90;;;;;;5092520;28;20035;-70
2023/01/11 00:09:14;;;;;;;12.82;3.70;;;6.00;99.90;;;;;;5106952;28;20071;-71
2023/01/11 00:11:40;;;;;;;12.15;3.90;;;6.00;99.90;;;;;;5083475;28;20035;-70
2023/01/11 00:14:06;;;;;;;9.35;3.88;;;6.00;99.90;;;;;;5104516;28;20027;-70
2023/01/11 00:16:32;;;;;;;10.45;4.03;;;6.00;99.90;;;;;;5106712;28;20028;-70
2023/01/11 00:18:57;;;;;;;12.50;4.25;;;6.00;99.90;;;;;;5088683;28;20036;-70
2023/01/11 00:21:25;;;;;;;8.45;3.55;;;6.10;99.90;;;;;;5086038;28;20023;-70
2023/01/11 00:23:51;;;;;;;11.88;4.00;;;6.10;99.90;;;;;;5104684;28;20035;-70
2023/01/11 00:26:17;;;;;;;11.18;4.00;;;6.10;99.90;;;;;;5106699;28;20032;-70
2023/01/11 00:28:43;;;;;;;9.95;3.65;;;6.10;99.90;;;;;;5106762;28;20031;-70
2023/01/11 00:31:09;;;;;;;10.50;4.30;;;6.20;99.90;;;;;;5087120;28;20035;-70
2023/01/11 00:33:34;;;;;;;10.30;3.97;;;6.20;99.90;;;;;;5072280;28;20040;-70
2023/01/11 00:36:00;;;;;;;9.15;4.25;;;6.20;99.90;;;;;;5089194;28;20042;-69
2023/01/11 00:38:50;;;;;;;10.45;3.88;;;6.20;99.90;;;;;;5107302;28;20043;-70
2023/01/11 00:49:31;;;;;;;12.27;4.15;;;6.30;99.90;;;;;;5108401;28;20110;-71
2023/01/11 00:51:57;;;;;;;11.40;4.25;;;6.30;99.90;;;;;;5107965;28;20145;-70
2023/01/11 00:54:23;;;;;;;12.98;3.97;;;6.20;99.90;;;;;;5108178;27;20529;-71
2023/01/11 00:56:49;;;;;;;9.85;3.92;;;6.30;99.90;;;;;;5107485;28;20030;-71
2023/01/11 00:59:15;;;;;;;13.38;4.40;;;6.20;99.90;;;;;;5090122;28;20062;-70
2023/01/11 01:01:40;;;;;;;12.32;4.20;;;6.30;99.90;;;;;;5087897;28;20028;-70
2023/01/11 01:04:08;;;;;;;13.52;5.00;;;6.30;99.90;;;;;;5090423;28;20032;-70
2023/01/11 01:06:33;;;;;;;11.13;3.90;;;6.30;99.90;;;;;;5107971;28;20028;-70
2023/01/11 01:08:59;;;;;;;11.73;4.43;;;6.30;99.90;;;;;;5106978;28;20027;-70
2023/01/11 01:11:25;;;;;;;9.25;3.70;;;6.30;99.90;;;;;;5087710;28;20144;-71
2023/01/11 01:16:36;;;;;;;12.75;4.18;;;6.30;99.90;;;;;;5103501;28;20027;-71
2023/01/11 01:19:02;;;;;;;13.38;4.47;;;6.30;99.90;;;;;;5089427;28;20111;-70
2023/01/11 01:21:28;;;;;;;12.35;4.60;;;6.30;99.90;;;;;;5086364;28;20028;-71
2023/01/11 01:23:54;;;;;;;15.00;4.93;;;6.30;99.90;;;;;;5103241;28;20031;-71
2023/01/11 01:26:20;;;;;;;8.55;3.80;;;6.30;99.90;;;;;;5089250;28;20040;-71
2023/01/11 01:28:46;;;;;;;13.45;4.30;;;6.30;99.90;;;;;;5107892;28;20046;-72
2023/01/11 01:31:12;;;;;;;12.02;4.03;;;6.40;99.90;;;;;;5086118;28;20031;-71
2023/01/11 01:33:38;;;;;;;16.42;4.25;;;6.40;99.90;;;;;;5088112;28;20031;-70
2023/01/11 01:36:27;;;;;;;9.07;3.33;;;6.40;99.90;;;;;;5087463;28;20034;-71
2023/01/11 01:38:53;;;;;;;10.35;4.30;;;6.40;99.90;;;;;;5108819;28;20539;-71
2023/01/11 01:41:19;;;;;;;10.32;3.47;;;6.40;99.90;;;;;;5106418;28;20165;-70
2023/01/11 01:43:57;;;;;;;11.30;3.58;;;6.40;99.90;;;;;;5104506;28;20407;-70
2023/01/11 01:46:27;;;;;;;10.23;3.78;;;6.50;99.90;;;;;;5101295;28;20099;-70
2023/01/11 01:48:58;;;;;;;9.80;3.80;;;6.50;99.90;;;;;;5086292;28;20040;-69
2023/01/11 01:51:46;;;;;;;9.13;3.78;;;6.50;99.90;;;;;;5085207;28;20027;-71
2023/01/11 01:54:18;;;;;;;7.97;3.50;;;6.50;99.90;;;;;;5109152;28;20027;-70
2023/01/11 01:56:53;;;;;;;9.48;3.80;;;6.50;99.90;;;;;;5084378;28;20038;-70
2023/01/11 01:59:22;;;;;;;6.95;3.38;;;6.60;99.90;;;;;;5086257;28;20395;-70
2023/01/11 02:01:49;;;;;;;6.68;3.20;;;6.60;99.90;;;;;;5105207;28;20069;-70
2023/01/11 02:04:33;;;;;;;8.00;3.40;;;6.60;99.90;;;;;;5099724;28;20097;-70
2023/01/11 02:07:18;;;;;;;5.97;3.03;;;6.60;99.90;;;;;;5087124;28;20105;-70
2023/01/11 02:10:18;;;;;;;5.68;3.08;;;6.70;99.90;;;;;;5107360;28;20035;-70
2023/01/11 02:13:07;;;;;;;9.48;3.28;;;6.70;99.90;;;;;;5103550;28;20490;-70
2023/01/11 02:15:33;;;;;;;5.68;2.70;;;6.70;99.90;;;;;;5089444;28;20035;-70
2023/01/11 02:17:59;;;;;;;8.27;2.92;;;6.70;99.90;;;;;;5105115;28;20024;-70
2023/01/11 02:20:25;;;;;;;6.28;3.15;;;6.80;99.90;;;;;;5089605;28;20027;-71
2023/01/11 02:23:33;;;;;;;8.57;2.50;;;6.80;99.90;;;;;;5101929;28;20479;-70
2023/01/11 02:26:46;;;;;;;5.07;2.67;;;6.80;99.90;;;;;;5089614;28;20028;-70
2023/01/11 02:29:38;;;;;;;4.55;2.28;;;6.80;99.90;;;;;;5113027;28;20471;-70
2023/01/11 02:32:30;;;;;;;4.55;2.55;;;6.80;99.90;;;;;;5098369;28;20126;-70
2023/01/11 02:35:08;;;;;;;5.40;2.22;;;6.90;99.90;;;;;;5108666;28;20038;-71
2023/01/11 02:38:04;;;;;;;5.57;2.53;;;6.90;99.90;;;;;;5091520;28;20058;-70
2023/01/11 02:41:00;;;;;;;5.70;2.40;;;6.90;99.90;;;;;;5108802;28;20509;-70
2023/01/11 02:46:33;;;;;;;2.63;1.88;;;7.00;99.90;;;;;;5091732;28;20028;-71
2023/01/11 02:49:26;;;;;;;3.22;2.20;;;7.00;99.90;;;;;;5103247;28;20039;-71
2023/01/11 02:52:05;;;;;;;3.58;1.92;;;7.00;99.90;;;;;;5090665;28;20035;-70
2023/01/11 02:54:32;;;;;;;3.40;1.85;;;7.00;99.90;;;;;;5109691;28;20394;-70
2023/01/11 02:57:00;;;;;;;5.13;2.35;;;7.10;99.90;;;;;;5091846;28;20028;-70
2023/01/11 02:59:31;;;;;;;3.22;1.80;;;7.10;99.90;;;;;;5109304;28;20027;-70
2023/01/11 03:01:58;;;;;;;4.18;1.95;;;7.20;99.90;;;;;;5112424;28;20024;-70
2023/01/11 03:04:31;;;;;;;3.70;1.80;;;7.20;99.90;;;;;;5085797;28;20510;-71
2023/01/11 03:07:08;;;;;;;4.55;2.00;;;7.20;99.90;;;;;;5075436;28;20020;-71
2023/01/11 03:10:00;;;;;;;2.72;1.73;;;7.20;99.90;;;;;;5103785;28;20031;-71
2023/01/11 03:12:53;;;;;;;4.15;2.00;;;7.30;99.90;;;;;;5109816;28;20023;-71
2023/01/11 03:15:44;;;;;;;4.07;1.50;;;7.30;99.90;;;;;;5093432;28;20101;-70
2023/01/11 03:18:32;;;;;;;5.43;1.90;;;7.40;99.90;;;;;;5088577;28;20465;-72
2023/01/11 03:21:20;;;;;;;3.55;1.50;;;7.40;99.90;;;;;;5105599;28;20024;-70
2023/01/11 03:24:14;;;;;;;1.80;1.33;;;7.50;99.90;;;;;;5093778;28;20024;-71
2023/01/11 03:27:03;;;;;;;3.88;1.45;;;7.50;99.90;;;;;;5075068;28;20062;-70
2023/01/11 03:29:36;;;;;;;4.20;1.30;;;7.50;99.90;;;;;;5087929;28;20031;-71
2023/01/11 03:32:20;;;;;;;3.65;1.88;;;7.50;99.90;;;;;;5110024;28;20027;-71
2023/01/11 03:35:20;;;;;;;3.67;1.20;;;7.60;99.90;;;;;;5089692;28;20443;-71
2023/01/11 03:38:01;;;;;;;2.53;1.40;;;7.60;99.90;;;;;;5070885;28;20043;-71
2023/01/11 03:40:36;;;;;;;1.33;1.20;;;7.60;99.90;;;;;;5106648;28;20023;-71
2023/01/11 03:43:12;;;;;;;2.25;1.00;;;7.70;99.90;;;;;;5111698;28;20484;-71
2023/01/11 03:45:40;;;;;;;2.92;1.40;;;7.60;99.90;;;;;;5109627;28;20179;-71
2023/01/11 03:48:12;;;;;;;3.40;1.67;;;7.60;99.90;;;;;;5107745;28;20077;-71
2023/01/11 03:50:39;;;;;;;1.80;1.45;;;7.60;99.90;;;;;;5086317;28;20047;-71
2023/01/11 03:53:07;;;;;;;2.83;1.85;;;7.70;99.90;;;;;;5092117;28;20031;-71
2023/01/11 03:55:41;;;;;;;2.30;1.40;;;7.70;99.90;;;;;;5104768;28;20429;-70
2023/01/11 03:58:07;;;;;;;2.70;1.52;;;7.70;99.90;;;;;;5103433;28;20055;-71
2023/01/11 04:00:35;;;;;;;5.03;1.85;;;7.70;99.90;;;;;;5085316;28;20035;-71
2023/01/11 04:03:01;;;;;;;4.30;1.48;;;7.70;99.90;;;;;;5107005;28;20032;-71
2023/01/11 04:05:27;;;;;;;3.67;1.33;;;7.70;99.90;;;;;;5107078;28;20031;-71
2023/01/11 04:07:53;;;;;;;2.03;1.00;;;7.70;99.90;;;;;;5087974;28;20086;-71
2023/01/11 04:10:19;;;;;;;3.40;1.40;;;7.70;99.90;;;;;;5106131;28;20503;-71
2023/01/11 04:12:46;;;;;;;3.13;1.48;;;7.70;99.90;;;;;;5096793;28;20062;-71
2023/01/11 04:15:13;;;;;;;1.80;1.30;;;7.70;99.90;;;;;;5106342;28;20043;-70
2023/01/11 04:17:40;;;;;;;1.65;1.00;;;7.70;99.90;;;;;;5104901;28;20050;-70
2023/01/11 04:20:08;;;;;;;2.15;1.25;;;7.70;99.90;;;;;;5104988;28;20111;-71
2023/01/11 04:22:33;;;;;;;2.88;1.10;;;7.70;99.90;;;;;;5090374;28;20116;-71
2023/01/11 04:25:00;;;;;;;1.95;1.20;;;7.70;99.90;;;;;;5107919;28;20103;-71
2023/01/11 04:27:26;;;;;;;2.22;1.40;;;7.70;99.90;;;;;;5091165;28;20074;-71
2023/01/11 04:29:52;;;;;;;2.67;1.00;;;7.80;99.90;;;;;;5065829;28;20387;-71
2023/01/11 04:32:17;;;;;;;1.45;0.93;;;7.80;99.90;;;;;;5107898;28;20047;-71
2023/01/11 04:34:46;;;;;;;2.45;1.10;;;7.80;99.90;;;;;;5087331;28;20042;-71
2023/01/11 04:37:12;;;;;;;3.60;1.23;;;7.80;99.90;;;;;;5073398;28;20035;-70
2023/01/11 04:39:37;;;;;;;3.10;1.13;;;7.80;99.90;;;;;;5104763;28;21027;-71
2023/01/11 04:42:19;;;;;;;2.10;0.93;;;7.80;99.90;;;;;;5088883;28;20110;-71
2023/01/11 04:44:48;;;;;;;;;;;7.80;99.90;;;;;;5106666;28;20069;-71
2023/01/11 04:47:19;;;;;;;1.70;1.30;;;7.80;99.90;;;;;;5084831;28;21299;-71
2023/01/11 04:49:45;;;;;;;4.80;1.25;;;7.80;99.90;;;;;;5086043;28;20055;-71
2023/01/11 04:52:13;;;;;;;2.03;1.25;;;7.80;99.90;;;;;;5089652;28;20165;-71
2023/01/11 04:54:39;;;;;;;2.65;1.23;;;7.90;99.90;;;;;;5086169;28;20554;-71
2023/01/11 04:57:06;;;;;;;1.60;1.25;;;7.90;99.90;;;;;;5073759;28;20038;-71
2023/01/11 04:59:31;;;;;;;1.75;1.10;;;7.90;99.90;;;;;;5102927;28;20465;-71
2023/01/11 05:01:57;;;;;;;2.15;1.27;;;7.90;99.90;;;;;;5091071;28;20023;-70
2023/01/11 05:04:23;;;;;;;3.42;1.50;;;8.00;99.90;;;;;;5082733;28;20086;-70
2023/01/11 05:06:49;;;;;;;1.83;1.20;;;8.00;99.90;;;;;;5109408;28;20031;-70
2023/01/11 05:09:16;;;;;;;3.88;1.58;;;8.00;99.90;;;;;;5105119;28;20039;-70
2023/01/11 05:11:42;;;;;;;3.83;1.80;;;8.00;99.90;;;;;;5106972;28;20062;-70
2023/01/11 05:14:08;;;;;;;3.63;1.60;;;8.00;99.90;;;;;;5105206;28;20714;-70
2023/01/11 05:16:33;;;;;;;3.47;1.80;;;8.00;99.90;;;;;;5087202;28;20108;-70
2023/01/11 05:19:03;;;;;;;2.33;1.63;;;8.00;99.90;;;;;;5104151;28;20026;-70
2023/01/11 05:21:31;;;;;;;2.15;1.60;;;8.00;99.90;;;;;;5104194;28;20050;-70
2023/01/11 05:23:59;;;;;;;3.45;1.80;;;8.00;99.90;;;;;;5106716;28;20028;-70
2023/01/11 05:26:27;;;;;;;2.00;1.60;;;8.00;99.90;;;;;;5107678;28;20028;-70
2023/01/11 05:28:55;;;;;;;3.65;1.85;;;8.00;99.90;;;;;;5105345;28;20061;-70
2023/01/11 05:31:21;;;;;;;2.78;1.90;;;8.00;99.90;;;;;;5102413;28;20024;-70
2023/01/11 05:33:47;;;;;;;2.28;1.30;;;8.00;99.90;;;;;;5106952;28;20483;-71
2023/01/11 05:36:18;;;;;;;3.80;1.70;;;8.10;99.90;;;;;;5106167;28;20535;-71
2023/01/11 05:38:45;;;;;;;3.47;1.92;;;8.10;99.90;;;;;;5085843;28;20855;-71
2023/01/11 05:41:12;;;;;;;5.65;2.20;;;8.10;99.90;;;;;;5103226;28;20049;-71
2023/01/11 05:46:23;;;;;;;3.55;2.03;;;8.10;99.90;;;;;;5101083;28;20027;-70
2023/01/11 05:48:49;;;;;;;5.88;2.10;;;8.10;99.90;;;;;;5085772;28;20482;-71
2023/01/11 05:51:15;;;;;;;2.75;2.03;;;8.10;99.90;;;;;;5082904;28;20070;-71
2023/01/11 05:53:41;;;;;;;2.13;1.80;;;8.10;99.90;;;;;;5119314;28;20031;-71
2023/01/11 05:56:06;;;;;;;3.08;2.47;;;8.10;99.90;;;;;;5084977;28;20498;-70
2023/01/11 05:58:32;;;;;;;2.80;2.05;;;8.20;99.90;;;;;;5083128;28;20108;-69
2023/01/11 06:00:58;;;;;;;4.72;2.15;;;8.20;99.90;;;;;;5078773;28;20036;-70
2023/01/11 06:03:25;;;;;;;2.88;2.20;;;8.20;99.90;;;;;;5100750;28;20031;-70
2023/01/11 06:05:52;;;;;;;4.50;1.80;;;8.20;99.90;;;;;;5078632;28;20043;-69
2023/01/11 06:08:18;;;;;;;3.42;2.00;;;8.20;99.90;;;;;;5080627;28;20036;-69
2023/01/11 06:10:55;;;;;;;4.13;1.92;;;8.20;99.90;;;;;;5102390;28;20514;-70
2023/01/11 06:13:25;;;;;;;6.43;1.70;;;8.30;99.90;;;;;;5103183;28;20035;-70
2023/01/11 06:16:03;;;;;;;2.70;1.77;;;8.30;99.90;;;;;;5106943;28;20024;-70
2023/01/11 06:18:31;;;;;;;4.80;1.98;;;8.30;99.90;;;;;;5104902;28;20051;-70
2023/01/11 06:20:57;;;;;;;6.22;1.83;;;8.30;99.90;;;;;;5088050;28;20058;-70
2023/01/11 06:23:25;;;;;;;3.03;1.70;;;8.30;99.90;;;;;;5086409;28;20020;-75
2023/01/11 06:25:51;;;;;;;3.60;1.75;;;8.30;99.90;;;;;;5080568;28;20032;-75
2023/01/11 06:28:17;;;;;;;3.42;1.92;;;8.30;99.90;;;;;;5098341;28;20039;-74
2023/01/11 06:30:43;;;;;;;3.55;2.17;;;8.40;99.90;;;;;;5066245;28;20040;-75
2023/01/11 06:33:08;;;;;;;3.95;2.33;;;8.40;99.90;;;;;;5089317;28;20733;-74
2023/01/11 06:35:41;;;;;;;3.38;2.03;;;8.40;99.90;;;;;;5082139;28;21089;-74
2023/01/11 06:38:10;;;;;;;5.03;2.28;;;8.40;99.90;;;;;;5102240;28;20040;-74
2023/01/11 06:40:39;;;;;;;4.30;2.13;;;8.40;99.90;;;;;;5104333;28;20028;-70
2023/01/11 06:43:06;;;;;;;2.28;2.00;;;8.50;99.90;;;;;;5087978;28;20110;-70
2023/01/11 06:45:32;;;;;;;5.30;2.58;;;8.50;99.90;;;;;;5102634;28;20613;-70
2023/01/11 06:47:58;;;;;;;5.53;2.15;;;8.50;99.90;;;;;;5065399;28;20030;-70
2023/01/11 06:50:24;;;;;;;3.92;2.30;;;8.50;99.90;;;;;;5081681;28;20024;-70
2023/01/11 06:52:59;;;;;;;3.97;2.13;;;8.50;99.90;;;;;;5102175;28;20016;-71
2023/01/11 06:55:26;;;;;;;4.28;2.35;;;8.50;99.90;;;;;;5086747;28;20046;-71
2023/01/11 06:57:52;;;;;;;2.85;2.15;;;8.50;99.90;;;;;;5100991;28;20388;-70
2023/01/11 07:00:19;;;;;;;3.15;2.00;;;8.50;99.90;;;;;;5101787;28;20023;-70
2023/01/11 07:02:47;;;;;;;7.05;2.90;;;8.50;99.90;;;;;;5106355;28;20127;-71
2023/01/11 07:05:13;;;;;;;3.45;2.30;;;8.50;99.90;;;;;;5098163;28;20038;-71
2023/01/11 07:07:40;;;;;;;4.95;2.90;;;8.60;99.90;;;;;;5085200;28;20110;-71
2023/01/11 07:10:08;;;;;;;6.25;3.17;;;8.60;99.90;;;;;;5083712;28;20069;-71
2023/01/11 07:12:34;;;;;;;3.90;3.20;;;8.60;99.90;;;;;;5082978;28;20055;-71
2023/01/11 07:15:00;;;;;;;3.00;2.67;;;8.60;99.90;;;;;;5108437;28;20026;-71
2023/01/11 07:17:26;;;;;;;5.28;3.75;;;8.60;99.90;;;;;;5073216;28;20040;-71
2023/01/11 07:19:52;;;;;;;5.47;3.45;;;8.60;99.90;;;;;;5098294;28;20047;-70
2023/01/11 07:22:17;;;;;;;5.22;4.15;;;8.70;99.90;;;;;;5080092;28;20031;-71
2023/01/11 07:24:43;;;;;;;5.90;3.92;;;8.70;99.90;;;;;;5083677;28;20036;-71
2023/01/11 07:27:09;;;;;;;7.97;3.92;;;8.70;99.90;;;;;;5098013;28;20039;-71
2023/01/11 07:29:34;;;;;;;4.88;3.88;;;8.70;99.90;;;;;;5097943;28;20027;-71
2023/01/11 07:32:00;;;;;;;5.63;3.50;;;8.70;99.90;;;;;;5109735;28;20020;-71
2023/01/11 07:34:26;;;;;;;5.75;4.32;;;8.70;99.90;;;;;;5088906;28;20032;-71
2023/01/11 07:36:52;;;;;;;5.72;4.20;;;8.80;99.90;;;;;;5082398;28;20081;-71
2023/01/11 07:39:17;;;;;;;6.20;4.38;;;8.80;99.90;;;;;;5075680;28;21219;-71
2023/01/11 07:44:27;;;;;;;7.25;4.63;;;8.80;99.90;;;;;;5104013;28;20047;-71
2023/01/11 07:46:53;;;;;;;6.18;4.78;;;8.80;99.90;;;;;;5088997;28;20088;-71
2023/01/11 07:49:18;;;;;;;4.78;4.00;;;8.80;99.90;;;;;;5080712;28;20352;-71
2023/01/11 07:51:44;;;;;;;8.93;4.65;;;8.80;99.90;;;;;;5083810;28;20031;-71
2023/01/11 07:54:10;;;;;;;5.43;4.57;;;8.90;99.90;;;;;;5080956;28;20032;-70
2023/01/11 07:56:35;;;;;;;4.68;4.13;;;8.80;99.90;;;;;;5102657;28;20104;-71
2023/01/11 07:59:01;;;;;;;7.78;4.80;;;8.90;99.90;;;;;;5084801;28;20510;-70
2023/01/11 08:01:27;;;;;;;5.35;4.30;;;8.90;99.90;;;;;;5097603;28;20020;-70
2023/01/11 08:03:52;;;;;;;6.72;4.60;;;8.90;99.90;;;;;;5073938;28;20108;-70
2023/01/11 08:06:18;;;;;;;5.30;4.05;;;8.90;99.90;;;;;;5077411;28;20418;-69
2023/01/11 08:08:44;;;;;;;9.07;5.38;;;8.90;99.90;;;;;;5096261;28;20048;-70
2023/01/11 08:16:41;;;;;;;6.25;4.70;;;9.00;99.90;;;;;;5103484;28;20039;-70
2023/01/11 08:19:07;;;;;;;7.50;4.60;;;9.00;99.90;;;;;;5090132;28;20050;-72
2023/01/11 08:21:32;;;;;;;6.50;4.90;;;9.00;99.90;;;;;;5084795;28;20452;-70
2023/01/11 08:23:58;;;;;;;5.43;4.45;;;9.00;99.90;;;;;;5068992;28;20543;-70
2023/01/11 08:26:26;;;;;;;6.72;4.75;;;9.00;99.90;;;;;;5098548;28;20063;-70
2023/01/11 08:28:53;;;;;;;5.28;4.22;;;9.00;99.90;;;;;;5081043;28;20110;-75
2023/01/11 08:31:20;;;;;;;5.55;4.18;;;9.00;99.90;;;;;;5100338;28;20019;-79
2023/01/11 08:33:47;;;;;;;6.93;3.72;;;9.00;99.90;;;;;;5080650;28;20028;-74
2023/01/11 08:36:17;;;;;;;6.10;4.20;;;9.00;99.90;;;;;;5096680;28;20118;-75
2023/01/11 08:38:43;;;;;;;7.05;4.65;;;9.00;99.90;;;;;;5096758;28;20089;-75
2023/01/11 08:41:13;;;;;;;4.45;3.95;;;9.00;99.90;;;;;;5104301;28;20031;-76
2023/01/11 08:43:43;;;;;;;5.68;4.75;;;9.00;99.90;;;;;;5081867;28;20031;-76
2023/01/11 08:46:09;;;;;;;6.80;5.03;;;9.10;99.90;;;;;;5079621;28;20039;-75
2023/01/11 08:48:35;;;;;;;7.22;5.43;;;9.10;99.90;;;;;;5077789;28;20035;-75
2023/01/11 08:51:00;;;;;;;6.63;5.32;;;9.10;99.90;;;;;;5105526;28;20023;-75
2023/01/11 08:53:26;;;;;;;7.55;5.28;;;9.10;99.90;;;;;;5099040;28;20085;-76
2023/01/11 08:55:52;;;;;;;5.85;4.10;;;9.10;99.90;;;;;;5099594;28;20653;-76
2023/01/11 08:58:19;;;;;;;6.22;5.22;;;9.20;99.90;;;;;;5105610;28;20032;-76
2023/01/11 09:00:46;;;;;;;6.60;4.47;;;9.20;99.90;;;;;;5082865;28;20020;-76
2023/01/11 09:03:13;;;;;;;5.50;4.35;;;9.30;99.90;;;;;;5070382;28;20024;-78
2023/01/11 09:05:40;;;;;;;7.38;4.93;;;9.20;99.90;;;;;;5072128;28;20028;-77
2023/01/11 09:08:07;;;;;;;7.88;5.00;;;9.30;99.90;;;;;;5050375;28;20467;-77
2023/01/11 09:10:33;;;;;;;5.32;4.43;;;9.20;99.90;;;;;;5064554;28;20485;-76
2023/01/11 09:12:59;;;;;;;5.57;4.13;;;9.20;99.90;;;;;;5071442;28;20023;-78
2023/01/11 09:15:26;;;;;;;6.43;4.78;;;9.60;99.90;;;;;;5078094;28;20542;-77
2023/01/11 09:17:52;;;;;;;6.03;4.30;;;9.40;99.90;;;;;;5096694;28;20081;-75
2023/01/11 09:20:19;;;;;;;5.43;4.38;;;9.30;99.90;;;;;;5072516;28;20075;-76
2023/01/11 09:22:47;;;;;;;5.80;4.50;;;9.20;99.90;;;;;;5056945;28;20119;-78
2023/01/11 09:25:13;;;;;;;8.73;4.80;;;9.30;99.90;;;;;;5044852;28;20199;-76
2023/01/11 09:27:43;;;;;;;6.38;4.40;;;9.20;99.90;;;;;;5037725;28;20404;-78
2023/01/11 09:30:10;;;;;;;6.70;4.28;;;9.30;99.90;;;;;;5057056;28;20073;-76
2023/01/11 09:32:37;;;;;;;9.93;4.60;;;9.30;99.90;;;;;;5080159;28;20023;-75
2023/01/11 09:35:03;;;;;;;6.63;3.65;;;9.30;99.90;;;;;;5092889;28;20049;-76
2023/01/11 09:37:29;;;;;;;6.20;3.80;;;9.30;99.90;;;;;;5103624;28;20400;-75
2023/01/11 09:39:58;;;;;;;12.05;4.68;;;9.30;99.90;;;;;;5102856;28;20661;-75
2023/01/11 09:42:34;;;;;;;11.63;4.28;;;9.20;99.90;;;;;;5084234;28;20031;-76
2023/01/11 09:45:14;;;;;;;5.30;3.63;;;9.20;99.90;;;;;;5103686;28;20023;-75
2023/01/11 09:48:03;;;;;;;7.03;4.30;;;9.20;99.90;;;;;;5100915;28;20035;-75
2023/01/11 09:50:32;;;;;;;7.90;3.55;;;9.20;99.90;;;;;;5097535;28;20063;-74
2023/01/11 09:53:09;;;;;;;5.45;3.10;;;9.20;99.90;;;;;;5103790;28;20422;-75
2023/01/11 09:55:41;;;;;;;5.13;3.90;;;9.30;99.90;;;;;;5102249;28;20082;-75
2023/01/11 09:58:21;;;;;;;6.15;3.30;;;9.30;99.90;;;;;;5103401;28;20039;-77
2023/01/11 10:01:15;;;;;;;9.83;3.37;;;9.20;99.90;;;;;;5102004;28;20043;-75
2023/01/11 10:04:05;;;;;;;5.03;2.85;;;9.20;99.90;;;;;;5080092;28;20143;-75
2023/01/11 10:06:43;;;;;;;5.30;2.20;;;9.20;99.90;;;;;;5077598;28;20387;-76
2023/01/11 10:09:21;;;;;;;6.85;2.42;;;9.20;99.90;;;;;;5076119;28;20388;-78
2023/01/11 10:11:57;;;;;;;6.55;2.35;;;9.20;99.90;;;;;;5096824;28;20032;-75
2023/01/11 10:14:48;;;;;;;5.25;2.20;;;9.20;99.90;;;;;;5077779;28;20116;-75
2023/01/11 10:17:29;;;;;;;5.60;2.38;;;9.20;99.90;;;;;;5079821;28;20031;-75
2023/01/11 10:20:00;;;;;;;8.40;1.90;;;9.20;99.90;;;;;;5098769;28;20023;-75
2023/01/11 10:22:31;;;;;;;;;;;9.10;99.90;;;;;;5099654;28;20107;-78
2023/01/11 10:25:15;;;;;;;;;;;9.20;99.90;;;;;;5102545;28;19943;-76
2023/01/11 10:27:59;;;;;;;6.70;2.25;;;9.20;99.90;;;;;;5101257;28;19908;-75
2023/01/11 10:30:54;;;;;;;9.05;3.13;;;9.10;99.90;;;;;;5084664;28;20027;-79
2023/01/11 10:42:55;;;;;;;10.68;2.30;;;9.30;99.90;;;;;;5081911;28;20122;-73
2023/01/11 10:45:37;;;;;;;4.28;1.85;;;9.30;99.90;;;;;;5103119;28;20024;-74
2023/01/11 10:48:09;;;;;;;;;;;9.20;99.90;;;;;;5085744;28;20046;-71
2023/01/11 10:51:04;;;;;;;9.23;1.77;;;9.20;99.90;;;;;;5107153;28;19911;-71
2023/01/11 10:53:58;;;;;;;6.07;2.00;;;9.20;99.90;;;;;;5083653;28;20073;-71
2023/01/11 10:56:48;;;;;;;7.80;1.98;;;9.20;99.90;;;;;;5091697;28;20514;-71
2023/01/11 10:59:49;;;;;;;18.92;3.42;;;9.30;99.90;;;;;;5109751;28;20085;-72
2023/01/11 11:02:33;;;;;;;;;;;9.90;99.90;;;;;;5111457;28;20032;-71
2023/01/11 11:05:14;;;;;;;6.10;2.17;;;9.80;99.90;;;;;;5090715;28;19957;-71
2023/01/11 11:07:58;;;;;;;5.57;2.00;;;9.70;99.90;;;;;;5089305;28;20121;-73
2023/01/11 11:10:34;;;;;;;5.22;2.17;;;9.60;99.90;;;;;;5094705;28;20254;-72
2023/01/11 11:13:08;;;;;;;8.00;1.83;;;9.40;99.90;;;;;;5108171;28;20024;-71
2023/01/11 11:15:56;;;;;;;9.10;2.15;;;9.40;99.90;;;;;;5086916;28;20032;-72
2023/01/11 11:18:22;;;;;;;10.60;2.17;;;9.40;99.90;;;;;;5110041;28;20066;-72
2023/01/11 11:20:49;;;;;;;4.18;1.48;;;9.40;99.90;;;;;;5087772;28;20107;-71
2023/01/11 11:23:18;;;;;;;6.55;1.77;;;9.40;99.90;;;;;;5107490;28;20700;-72
2023/01/11 11:26:10;;;;;;;8.85;2.55;;;9.40;99.90;;;;;;5105160;28;20035;-72
2023/01/11 11:28:36;;;;;;;6.47;1.92;;;9.40;99.90;;;;;;5085833;28;20050;-71
2023/01/11 11:31:04;;;;;;;5.65;2.20;;;9.30;99.90;;;;;;5107221;28;20019;-72
2023/01/11 11:33:37;;;;;;;8.63;2.85;;;9.30;99.90;;;;;;5098810;28;20024;-71
2023/01/11 11:36:05;;;;;;;12.13;2.05;;;9.30;99.90;;;;;;5069063;28;20024;-71
2023/01/11 11:38:33;;;;;;;11.25;2.10;;;9.30;99.90;;;;;;5101733;28;20557;-70
2023/01/11 11:41:15;;;;;;;10.02;2.25;;;9.30;99.90;;;;;;5101320;28;20906;-70
2023/01/11 11:43:46;;;;;;;7.65;2.13;;;9.30;99.90;;;;;;5098192;28;20039;-70
2023/01/11 11:46:15;;;;;;;7.88;2.20;;;9.30;99.90;;;;;;5103603;28;20035;-76
2023/01/11 11:48:42;;;;;;;9.50;2.63;;;9.30;99.90;;;;;;5085022;28;20036;-75
2023/01/11 11:51:34;;;;;;;12.07;2.67;;;9.30;99.90;;;;;;5082287;28;20691;-75
2023/01/11 11:54:01;;;;;;;7.72;2.40;;;9.30;99.90;;;;;;5064426;28;20035;-75
2023/01/11 11:56:36;;;;;;;6.60;2.30;;;9.40;99.90;;;;;;5086051;28;20027;-75
2023/01/11 11:59:13;;;;;;;9.88;2.47;;;9.40;99.90;;;;;;5080444;28;20020;-76
2023/01/11 12:01:45;;;;;;;14.30;2.42;;;9.40;99.90;;;;;;5106179;27;20110;-75
2023/01/11 12:04:16;;;;;;;9.23;2.47;;;9.30;99.90;;;;;;5082535;28;20114;-75
2023/01/11 12:06:44;;;;;;;13.18;2.45;;;9.30;99.90;;;;;;5085891;28;20609;-74
2023/01/11 12:09:18;;;;;;;8.48;2.47;;;9.40;99.90;;;;;;5082082;28;20043;-75
2023/01/11 12:11:46;;;;;;;12.75;2.72;;;9.40;99.90;;;;;;5091146;28;20110;-76
2023/01/11 12:14:15;;;;;;;11.40;2.72;;;9.30;99.90;;;;;;5087489;28;20031;-75
2023/01/11 12:16:42;;;;;;;9.43;2.47;;;9.40;99.90;;;;;;5085565;28;20043;-75
2023/01/11 12:19:40;;;;;;;5.60;2.13;;;9.40;99.90;;;;;;5108257;28;20364;-76
2023/01/11 12:22:26;;;;;;;9.77;2.25;;;9.40;99.90;;;;;;5088243;28;20030;-76
2023/01/11 12:25:18;;;;;;;7.75;2.80;;;9.40;99.90;;;;;;5087743;28;20016;-75
2023/01/11 12:27:52;;;;;;;9.80;2.55;;;9.40;99.90;;;;;;5107234;28;20050;-75
2023/01/11 12:30:33;;;;;;;9.07;2.10;;;9.40;99.90;;;;;;5106788;28;20032;-75
2023/01/11 12:33:30;;;;;;;9.90;3.00;;;9.40;99.90;;;;;;5104849;28;20030;-75
2023/01/11 12:36:04;;;;;;;11.60;3.05;;;9.40;99.90;;;;;;5122531;28;20055;-76
2023/01/11 12:38:42;;;;;;;9.43;2.47;;;9.40;99.90;;;;;;5085251;28;20153;-71
2023/01/11 12:41:43;;;;;;;11.45;2.70;;;9.30;99.90;;;;;;5071204;28;20586;-72
2023/01/11 12:44:42;;;;;;;12.88;2.63;;;9.40;99.90;;;;;;5110618;28;20031;-71
2023/01/11 12:47:20;;;;;;;13.00;3.80;;;9.40;99.90;;;;;;5086373;28;20647;-71
2023/01/11 12:49:57;;;;;;;12.63;2.80;;;9.40;99.90;;;;;;5085453;28;20036;-71
2023/01/11 12:52:47;;;;;;;14.10;3.25;;;9.30;99.90;;;;;;5102442;28;20533;-71
2023/01/11 12:55:27;;;;;;;9.38;3.35;;;9.30;99.90;;;;;;5105384;28;20063;-71
2023/01/11 12:58:24;;;;;;;13.70;3.17;;;9.30;99.90;;;;;;5082843;28;20057;-72
2023/01/11 13:01:11;;;;;;;9.68;3.15;;;9.30;99.90;;;;;;5091141;28;20042;-72
2023/01/11 13:04:09;;;;;;;9.57;3.25;;;9.20;99.90;;;;;;5080760;28;20651;-71
2023/01/11 13:07:00;;;;;;;9.15;3.55;;;9.30;99.90;;;;;;5090518;28;20076;-71
2023/01/11 13:09:44;;;;;;;9.23;3.42;;;9.20;99.90;;;;;;5071484;28;20115;-72
2023/01/11 13:12:41;;;;;;;9.75;3.90;;;9.30;99.90;;;;;;5083484;28;20604;-72
2023/01/11 13:15:40;;;;;;;12.95;3.85;;;9.30;99.90;;;;;;5076025;28;20048;-71
2023/01/11 13:18:18;;;;;;;12.60;3.53;;;9.40;99.90;;;;;;5106212;28;20062;-72
2023/01/11 13:20:51;;;;;;;13.30;3.72;;;9.30;99.90;;;;;;5101742;28;20525;-71
2023/01/11 13:23:22;;;;;;;9.73;3.78;;;9.40;99.90;;;;;;5086692;28;20047;-72
2023/01/11 13:25:51;;;;;;;11.02;3.72;;;9.40;99.90;;;;;;5105621;27;20043;-71
2023/01/11 13:28:38;;;;;;;17.73;4.40;;;9.40;99.90;;;;;;5103981;28;20024;-71
2023/01/11 13:31:08;;;;;;;16.05;3.63;;;9.40;99.90;;;;;;5064761;28;20891;-71
2023/01/11 13:33:35;;;;;;;15.00;3.88;;;9.40;99.90;;;;;;5083463;27;20081;-72
2023/01/11 13:36:13;;;;;;;13.05;3.65;;;9.30;99.90;;;;;;5096992;28;20033;-71
2023/01/11 13:39:02;;;;;;;19.73;3.85;;;9.30;99.90;;;;;;5103436;28;20031;-76
2023/01/11 13:41:56;;;;;;;10.35;2.92;;;9.10;99.90;;;;;;5084962;28;20023;-75
2023/01/11 13:44:33;;;;;;;11.70;3.22;;;9.10;99.90;;;;;;5080651;28;20526;-74
2023/01/11 13:47:25;;;;;;;10.05;3.15;;;9.00;99.90;;;;;;5105756;28;20070;-75
2023/01/11 13:50:19;;;;;;;12.65;2.95;;;9.00;99.90;;;;;;5102476;28;20028;-75
2023/01/11 13:53:14;;;;;;;13.52;3.53;;;9.00;99.90;;;;;;5083916;28;20024;-75
2023/01/11 13:56:11;;;;;;;18.60;3.42;;;8.90;99.90;;;;;;5085125;28;21012;-75
2023/01/11 13:59:05;;;;;;;10.32;3.03;;;9.00;99.90;;;;;;5084661;28;20077;-75
2023/01/11 14:02:03;;;;;;;12.93;3.42;;;9.00;99.90;;;;;;5084574;28;20042;-76